createdAt,value
2023-07-18T00:02:14.216Z,6.20
2023-07-18T00:04:42.024Z,3.30
2023-07-18T00:07:09.588Z,5.40
2023-07-18T00:09:38.957Z,6.90
2023-07-18T00:12:07.386Z,7.30
2023-07-18T00:14:34.889Z,6.40
2023-07-18T00:17:02.558Z,6.00
2023-07-18T00:19:31.523Z,4.70
2023-07-18T00:21:59.117Z,6.70
2023-07-18T00:24:26.588Z,6.20
2023-07-18T00:26:56.253Z,7.10
2023-07-18T00:29:24.721Z,8.30
2023-07-18T00:31:52.393Z,3.80
2023-07-18T00:34:20.485Z,4.80
2023-07-18T00:36:48.101Z,6.90
2023-07-18T00:39:15.512Z,4.60
2023-07-18T00:41:43.678Z,5.80
2023-07-18T00:44:11.201Z,6.50
2023-07-18T00:46:38.817Z,3.70
2023-07-18T00:49:06.513Z,4.60
2023-07-18T00:51:37.002Z,4.50
2023-07-18T00:54:07.836Z,5.60
2023-07-18T00:56:36.842Z,6.80
2023-07-18T00:59:05.021Z,4.80
2023-07-18T01:01:34.151Z,5.40
2023-07-18T01:04:02.912Z,7.20
2023-07-18T01:06:30.380Z,4.20
2023-07-18T01:08:58.037Z,4.30
2023-07-18T01:11:25.494Z,3.70
2023-07-18T01:13:52.948Z,8.00
2023-07-18T01:16:20.495Z,7.90
2023-07-18T01:18:47.986Z,5.20
2023-07-18T01:21:20.506Z,6.40
2023-07-18T01:23:48.840Z,5.20
2023-07-18T01:26:18.725Z,7.10
2023-07-18T01:28:47.130Z,6.70
2023-07-18T01:31:15.188Z,17.10
2023-07-18T01:33:45.271Z,9.90
2023-07-18T01:36:12.748Z,5.00
2023-07-18T01:38:40.175Z,5.30
2023-07-18T01:41:09.670Z,6.80
2023-07-18T01:43:37.201Z,6.20
2023-07-18T01:46:04.730Z,7.50
2023-07-18T01:48:34.536Z,5.20
2023-07-18T01:51:01.988Z,4.30
2023-07-18T01:53:29.431Z,3.30
2023-07-18T01:56:00.430Z,4.90
2023-07-18T01:58:28.776Z,6.60
2023-07-18T02:00:56.246Z,3.90
2023-07-18T02:03:23.786Z,6.60
2023-07-18T02:05:53.215Z,4.60
2023-07-18T02:08:20.661Z,4.90
2023-07-18T02:10:48.100Z,6.50
2023-07-18T02:13:15.632Z,6.90
2023-07-18T02:15:43.809Z,7.20
2023-07-18T02:18:11.272Z,8.30
2023-07-18T02:20:38.884Z,6.80
2023-07-18T02:23:09.813Z,6.80
2023-07-18T02:25:39.613Z,5.90
2023-07-18T02:28:09.062Z,6.90
2023-07-18T02:30:37.484Z,9.60
2023-07-18T02:33:08.517Z,8.40
2023-07-18T02:35:39.915Z,4.00
2023-07-18T02:38:07.334Z,8.70
2023-07-18T02:40:34.813Z,7.40
2023-07-18T02:43:02.250Z,9.70
2023-07-18T02:45:30.029Z,8.80
2023-07-18T02:47:57.694Z,8.20
2023-07-18T02:50:25.362Z,7.10
2023-07-18T02:52:52.966Z,6.70
2023-07-18T02:55:20.414Z,4.40
2023-07-18T02:57:47.928Z,4.50
2023-07-18T03:00:27.337Z,9.40
2023-07-18T03:02:55.230Z,8.00
2023-07-18T03:05:26.159Z,7.10
2023-07-18T03:07:55.860Z,8.10
2023-07-18T03:10:24.661Z,7.50
2023-07-18T03:12:52.136Z,8.90
2023-07-18T03:15:22.905Z,7.40
2023-07-18T03:17:50.636Z,6.90
2023-07-18T03:20:18.549Z,5.90
2023-07-18T03:22:47.377Z,8.10
2023-07-18T03:25:18.041Z,8.80
2023-07-18T03:27:45.538Z,6.40
2023-07-18T03:30:13.637Z,7.50
2023-07-18T03:32:41.751Z,7.40
2023-07-18T03:35:10.482Z,12.30
2023-07-18T03:37:38.047Z,6.40
2023-07-18T03:40:07.572Z,4.90
2023-07-18T03:42:35.172Z,8.80
2023-07-18T03:45:04.355Z,10.30
2023-07-18T03:47:32.855Z,10.20
2023-07-18T03:50:03.880Z,9.30
2023-07-18T03:52:34.325Z,6.50
2023-07-18T03:55:01.835Z,8.60
2023-07-18T03:57:34.405Z,7.10
2023-07-18T04:00:05.130Z,6.40
2023-07-18T04:02:32.596Z,7.10
2023-07-18T04:05:00.121Z,9.40
2023-07-18T04:07:30.054Z,7.60
2023-07-18T04:09:57.480Z,6.70
2023-07-18T04:12:27.303Z,7.10
2023-07-18T04:14:59.898Z,10.10
2023-07-18T04:17:29.981Z,7.80
2023-07-18T04:20:02.802Z,8.50
2023-07-18T04:22:30.880Z,6.70
2023-07-18T04:24:58.367Z,10.30
2023-07-18T04:27:27.874Z,6.10
2023-07-18T04:29:57.774Z,6.80
2023-07-18T04:32:25.447Z,5.30
2023-07-18T04:34:52.953Z,6.60
2023-07-18T04:37:22.073Z,7.90
2023-07-18T04:39:49.605Z,5.30
2023-07-18T04:42:17.046Z,8.60
2023-07-18T04:44:44.494Z,5.70
2023-07-18T04:47:12.049Z,4.60
2023-07-18T04:49:40.400Z,5.00
2023-07-18T04:52:08.874Z,4.60
2023-07-18T04:54:36.484Z,5.40
2023-07-18T04:57:05.582Z,5.50
2023-07-18T04:59:35.733Z,6.70
2023-07-18T05:02:03.731Z,4.00
2023-07-18T05:04:31.330Z,7.40
2023-07-18T05:07:00.265Z,6.10
2023-07-18T05:09:29.375Z,7.80
2023-07-18T05:11:57.023Z,7.00
2023-07-18T05:14:24.433Z,5.10
2023-07-18T05:16:52.398Z,5.30
2023-07-18T05:19:20.231Z,6.10
2023-07-18T05:21:48.063Z,6.10
2023-07-18T05:24:16.990Z,4.10
2023-07-18T05:26:44.483Z,5.80
2023-07-18T05:29:11.929Z,5.90
2023-07-18T05:31:41.361Z,7.30
2023-07-18T05:34:10.660Z,6.10
2023-07-18T05:36:38.159Z,4.90
2023-07-18T05:39:05.679Z,6.40
2023-07-18T05:41:33.087Z,9.50
2023-07-18T05:44:00.650Z,6.10
2023-07-18T05:46:28.276Z,5.90
2023-07-18T05:48:55.827Z,7.40
2023-07-18T05:51:23.344Z,4.60
2023-07-18T05:53:50.801Z,5.80
2023-07-18T05:56:18.247Z,4.80
2023-07-18T05:58:46.540Z,5.50
2023-07-18T06:01:15.353Z,4.30
2023-07-18T06:03:43.426Z,8.70
2023-07-18T06:08:33.094Z,7.10
2023-07-18T06:11:00.571Z,4.40
2023-07-18T06:13:28.184Z,3.70
2023-07-18T06:15:55.839Z,6.90
2023-07-18T06:18:23.753Z,3.90
2023-07-18T06:20:54.169Z,4.50
2023-07-18T06:25:54.784Z,9.20
2023-07-18T06:28:22.302Z,4.60
2023-07-18T06:31:02.190Z,3.70
2023-07-18T06:33:29.946Z,5.40
2023-07-18T06:36:00.829Z,5.60
2023-07-18T06:38:28.501Z,3.70
2023-07-18T06:40:56.641Z,6.90
2023-07-18T06:43:25.810Z,5.50
2023-07-18T06:45:53.294Z,3.30
2023-07-18T06:48:23.834Z,5.00
2023-07-18T06:50:52.967Z,7.90
2023-07-18T06:53:21.499Z,7.50
2023-07-18T06:55:54.899Z,8.30
2023-07-18T06:58:22.609Z,7.20
2023-07-18T07:00:51.656Z,5.40
2023-07-18T07:03:21.672Z,6.50
2023-07-18T07:05:49.234Z,3.90
2023-07-18T07:08:20.238Z,2.90
2023-07-18T07:10:47.886Z,3.20
2023-07-18T07:13:17.088Z,5.80
2023-07-18T07:15:44.573Z,5.40
2023-07-18T07:18:12.313Z,5.40
2023-07-18T07:20:39.885Z,2.90
2023-07-18T07:23:07.391Z,6.40
2023-07-18T07:25:37.369Z,5.60
2023-07-18T07:28:05.652Z,4.60
2023-07-18T07:30:33.801Z,3.70
2023-07-18T07:33:01.331Z,4.00
2023-07-18T07:35:29.975Z,3.00
2023-07-18T07:37:59.026Z,4.10
2023-07-18T07:40:26.470Z,3.50
2023-07-18T07:42:53.961Z,3.30
2023-07-18T07:45:22.411Z,3.70
2023-07-18T07:47:50.164Z,4.10
2023-07-18T07:50:17.708Z,2.70
2023-07-18T07:52:46.804Z,4.30
2023-07-18T07:55:14.482Z,4.00
2023-07-18T07:57:42.322Z,4.50
2023-07-18T08:00:10.466Z,4.70
2023-07-18T08:02:38.373Z,4.50
2023-07-18T08:05:07.159Z,4.50
2023-07-18T08:07:34.686Z,3.80
2023-07-18T08:10:02.104Z,3.40
2023-07-18T08:12:31.878Z,3.70
2023-07-18T08:14:59.475Z,4.40
2023-07-18T08:17:27.373Z,2.40
2023-07-18T08:19:55.390Z,3.80
2023-07-18T08:22:23.509Z,3.30
2023-07-18T08:24:50.911Z,3.80
2023-07-18T08:27:18.364Z,3.50
2023-07-18T08:29:45.797Z,2.60
2023-07-18T08:32:13.255Z,2.40
2023-07-18T08:34:40.744Z,3.80
2023-07-18T08:37:10.718Z,4.70
2023-07-18T08:39:40.867Z,2.80
2023-07-18T08:42:08.557Z,3.70
2023-07-18T08:44:36.489Z,5.40
2023-07-18T08:47:06.666Z,3.60
2023-07-18T08:49:37.245Z,2.70
2023-07-18T08:52:06.701Z,2.60
2023-07-18T08:54:35.835Z,2.80
2023-07-18T08:57:05.032Z,1.50
2023-07-18T08:59:32.715Z,2.30
2023-07-18T09:02:00.184Z,2.50
2023-07-18T09:04:27.657Z,2.50
2023-07-18T09:07:01.950Z,2.40
2023-07-18T09:09:29.538Z,3.10
2023-07-18T09:12:04.078Z,2.10
2023-07-18T09:14:33.927Z,2.20
2023-07-18T09:17:04.906Z,3.30
2023-07-18T09:19:46.920Z,3.00
2023-07-18T09:22:15.121Z,3.10
2023-07-18T09:24:44.202Z,5.00
2023-07-18T09:27:17.300Z,3.10
2023-07-18T09:29:47.586Z,3.40
2023-07-18T09:32:19.519Z,2.60
2023-07-18T09:34:54.022Z,2.70
2023-07-18T09:37:21.633Z,4.80
2023-07-18T09:39:49.156Z,3.60
2023-07-18T09:42:22.824Z,3.20
2023-07-18T09:44:53.422Z,2.90
2023-07-18T09:47:21.699Z,2.70
2023-07-18T09:49:49.624Z,2.40
2023-07-18T09:52:17.421Z,2.70
2023-07-18T09:54:45.401Z,2.80
2023-07-18T09:57:14.121Z,3.20
2023-07-18T09:59:41.616Z,3.50
2023-07-18T10:02:12.648Z,1.80
2023-07-18T10:04:40.945Z,3.00
2023-07-18T10:07:10.639Z,2.60
2023-07-18T10:09:40.202Z,3.60
2023-07-18T10:12:10.498Z,2.70
2023-07-18T10:14:52.967Z,2.40
2023-07-18T10:17:37.518Z,3.90
2023-07-18T10:20:21.012Z,3.50
2023-07-18T10:22:49.567Z,2.80
2023-07-18T10:25:20.303Z,5.60
2023-07-18T10:27:48.800Z,6.00
2023-07-18T10:30:20.774Z,3.20
2023-07-18T10:32:55.416Z,4.00
2023-07-18T10:35:27.106Z,3.10
2023-07-18T10:37:57.571Z,3.80
2023-07-18T10:40:35.075Z,5.70
2023-07-18T10:43:05.842Z,4.80
2023-07-18T10:45:42.049Z,3.50
2023-07-18T10:48:15.385Z,3.10
2023-07-18T10:50:48.662Z,7.10
2023-07-18T10:53:20.281Z,3.10
2023-07-18T10:55:49.066Z,3.20
2023-07-18T10:58:18.407Z,3.50
2023-07-18T11:00:46.611Z,3.40
2023-07-18T11:03:24.620Z,5.60
2023-07-18T11:05:52.532Z,3.10
2023-07-18T11:08:27.323Z,4.80
2023-07-18T11:10:59.441Z,5.10
2023-07-18T11:13:36.837Z,8.30
2023-07-18T11:16:15.619Z,3.50
2023-07-18T11:18:45.072Z,6.00
2023-07-18T11:21:13.393Z,5.40
2023-07-18T11:23:41.198Z,4.40
2023-07-18T11:26:13.596Z,6.60
2023-07-18T11:34:02.924Z,4.70
2023-07-18T11:36:38.049Z,5.80
2023-07-18T11:39:25.994Z,8.00
2023-07-18T11:41:55.405Z,5.60
2023-07-18T11:44:25.061Z,7.30
2023-07-18T11:46:53.292Z,5.00
2023-07-18T11:49:36.292Z,6.70
2023-07-18T11:52:05.312Z,7.50
2023-07-18T11:54:37.010Z,8.90
2023-07-18T11:57:06.893Z,5.10
2023-07-18T11:59:34.438Z,4.30
2023-07-18T12:02:02.976Z,3.30
2023-07-18T12:04:30.525Z,6.40
2023-07-18T12:06:58.947Z,5.30
2023-07-18T12:09:27.003Z,8.40
2023-07-18T12:11:55.786Z,8.30
2023-07-18T12:14:23.627Z,6.70
2023-07-18T12:16:51.190Z,9.30
2023-07-18T12:19:21.645Z,11.50
2023-07-18T12:21:52.321Z,5.50
2023-07-18T12:24:19.892Z,7.40
2023-07-18T12:26:50.258Z,5.90
2023-07-18T12:29:18.303Z,5.60
2023-07-18T12:31:47.497Z,6.10
2023-07-18T12:34:15.520Z,6.10
2023-07-18T12:36:43.151Z,7.10
2023-07-18T12:39:11.522Z,5.80
2023-07-18T12:41:39.323Z,7.90
2023-07-18T12:44:11.683Z,7.50
2023-07-18T12:46:40.630Z,5.50
2023-07-18T12:49:08.137Z,5.00
2023-07-18T12:51:35.692Z,18.20
2023-07-18T12:54:04.090Z,15.00
2023-07-18T12:56:34.702Z,13.80
2023-07-18T12:59:02.187Z,14.10
2023-07-18T13:01:31.097Z,8.80
2023-07-18T13:03:58.897Z,8.10
2023-07-18T13:06:26.444Z,8.60
2023-07-18T13:08:54.475Z,11.00
2023-07-18T13:11:21.991Z,10.00
2023-07-18T13:13:52.855Z,8.90
2023-07-18T13:16:20.671Z,9.60
2023-07-18T13:18:49.716Z,9.00
2023-07-18T13:21:17.938Z,8.80
2023-07-18T13:23:45.482Z,9.60
2023-07-18T13:26:14.408Z,10.40
2023-07-18T13:28:42.880Z,10.50
2023-07-18T13:31:10.873Z,8.30
2023-07-18T13:33:39.606Z,12.40
2023-07-18T13:36:07.375Z,15.20
2023-07-18T13:38:35.570Z,13.90
2023-07-18T13:41:09.152Z,14.70
2023-07-18T13:43:37.173Z,8.80
2023-07-18T13:46:04.928Z,9.30
2023-07-18T13:48:33.974Z,10.20
2023-07-18T13:51:04.073Z,9.10
2023-07-18T13:53:31.555Z,9.80
2023-07-18T13:55:59.040Z,9.70
2023-07-18T13:58:29.180Z,10.70
2023-07-18T14:00:56.710Z,17.70
2023-07-18T14:03:35.186Z,13.80
2023-07-18T14:06:04.776Z,14.20
2023-07-18T14:08:32.621Z,12.30
2023-07-18T14:11:00.608Z,9.80
2023-07-18T14:13:32.793Z,11.20
2023-07-18T14:16:00.288Z,11.40
2023-07-18T14:18:27.787Z,10.20
2023-07-18T14:20:55.283Z,11.20
2023-07-18T14:23:22.977Z,12.50
2023-07-18T14:25:50.565Z,9.10
2023-07-18T14:28:18.952Z,13.00
2023-07-18T14:30:46.491Z,10.70
2023-07-18T14:33:15.483Z,10.20
2023-07-18T14:35:45.101Z,9.70
2023-07-18T14:38:13.465Z,11.20
2023-07-18T14:40:41.113Z,14.30
2023-07-18T14:43:12.169Z,12.80
2023-07-18T14:45:39.777Z,15.80
2023-07-18T14:48:07.545Z,8.90
2023-07-18T14:50:37.604Z,10.00
2023-07-18T14:53:05.432Z,9.70
2023-07-18T14:55:35.205Z,8.30
2023-07-18T14:58:03.140Z,17.50
2023-07-18T15:00:30.651Z,9.10
2023-07-18T15:02:58.169Z,11.50
2023-07-18T15:05:25.963Z,12.20
2023-07-18T15:07:53.485Z,14.20
2023-07-18T15:10:20.979Z,11.80
2023-07-18T15:12:53.356Z,12.90
2023-07-18T15:15:21.767Z,7.20
2023-07-18T15:17:52.231Z,8.30
2023-07-18T15:20:20.153Z,7.80
2023-07-18T15:22:52.697Z,7.80
2023-07-18T15:25:20.476Z,8.20
2023-07-18T15:27:47.982Z,10.60
2023-07-18T15:30:15.550Z,10.20
2023-07-18T15:32:46.069Z,9.20
2023-07-18T15:35:14.828Z,10.90
2023-07-18T15:37:42.312Z,11.10
2023-07-18T15:40:10.639Z,9.80
2023-07-18T15:42:39.525Z,7.40
2023-07-18T15:45:07.487Z,8.40
2023-07-18T15:47:35.095Z,7.60
2023-07-18T15:50:02.849Z,7.00
2023-07-18T15:52:30.385Z,9.00
2023-07-18T15:54:58.705Z,6.80
2023-07-18T15:57:26.198Z,9.90
2023-07-18T15:59:53.711Z,8.60
2023-07-18T16:02:21.313Z,10.60
2023-07-18T16:04:48.810Z,8.10
2023-07-18T16:07:16.319Z,8.30
2023-07-18T16:09:57.658Z,8.10
2023-07-18T16:12:25.866Z,8.30
2023-07-18T16:15:02.588Z,9.70
2023-07-18T16:17:30.349Z,8.30
2023-07-18T16:19:58.501Z,7.80
2023-07-18T16:22:25.978Z,8.40
2023-07-18T16:24:53.576Z,12.00
2023-07-18T16:27:23.170Z,9.20
2023-07-18T16:29:51.061Z,8.10
2023-07-18T16:32:18.672Z,6.50
2023-07-18T16:34:46.531Z,7.70
2023-07-18T16:37:14.077Z,6.40
2023-07-18T16:39:41.603Z,10.20
2023-07-18T16:42:22.939Z,6.40
2023-07-18T16:44:51.958Z,5.40
2023-07-18T16:47:19.653Z,6.50
2023-07-18T16:49:47.193Z,7.90
2023-07-18T16:52:15.156Z,9.10
2023-07-18T16:54:42.691Z,7.90
2023-07-18T16:57:11.427Z,7.60
2023-07-18T16:59:38.997Z,6.40
2023-07-18T17:02:07.077Z,8.60
2023-07-18T17:04:34.573Z,7.50
2023-07-18T17:07:03.423Z,7.60
2023-07-18T17:09:31.040Z,10.00
2023-07-18T17:11:58.492Z,14.70
2023-07-18T17:14:26.026Z,12.30
2023-07-18T17:16:53.667Z,12.40
2023-07-18T17:19:21.854Z,13.40
2023-07-18T17:21:49.354Z,12.60
2023-07-18T17:24:18.354Z,12.00
2023-07-18T17:26:46.979Z,12.10
2023-07-18T17:29:14.514Z,12.90
2023-07-18T17:31:42.159Z,14.70
2023-07-18T17:34:10.081Z,14.70
2023-07-18T17:36:37.494Z,14.80
2023-07-18T17:39:05.545Z,15.00
2023-07-18T17:41:33.268Z,11.80
2023-07-18T17:44:00.736Z,11.30
2023-07-18T17:46:28.392Z,11.90
2023-07-18T17:48:55.917Z,10.70
2023-07-18T17:51:23.502Z,11.40
2023-07-18T17:53:53.642Z,17.50
2023-07-18T17:56:23.369Z,16.30
2023-07-18T17:58:50.949Z,24.00
2023-07-18T18:01:21.534Z,29.10
2023-07-18T18:03:49.724Z,25.60
2023-07-18T18:06:17.365Z,31.20
2023-07-18T18:08:45.096Z,35.90
2023-07-18T18:11:12.665Z,37.30
2023-07-18T18:13:40.153Z,39.70
2023-07-18T18:16:09.346Z,44.10
2023-07-18T18:18:38.191Z,46.70
2023-07-18T18:21:07.527Z,51.60
2023-07-18T18:26:35.461Z,29.70
2023-07-18T18:29:06.238Z,22.40
2023-07-18T18:31:34.655Z,19.10
2023-07-18T18:34:02.092Z,20.70
2023-07-18T18:36:30.722Z,19.70
2023-07-18T18:38:57.919Z,19.40
2023-07-18T18:41:26.421Z,14.10
2023-07-18T18:43:57.170Z,17.20
2023-07-18T18:46:24.043Z,18.70
2023-07-18T18:48:50.976Z,10.70
2023-07-18T18:51:20.671Z,15.60
2023-07-18T18:53:47.672Z,11.70
2023-07-18T18:56:14.344Z,8.90
2023-07-18T18:58:41.794Z,9.60
2023-07-18T19:01:10.177Z,7.90
2023-07-18T19:03:38.769Z,8.20
2023-07-18T19:06:06.244Z,8.80
2023-07-18T19:08:33.374Z,10.40
2023-07-18T19:11:07.445Z,9.90
2023-07-18T19:13:36.201Z,17.50
2023-07-18T19:16:04.080Z,19.20
2023-07-18T19:18:31.160Z,33.90
2023-07-18T19:20:58.932Z,40.80
2023-07-18T19:23:29.035Z,123.00
2023-07-18T19:25:56.004Z,128.70
2023-07-18T19:28:23.175Z,120.00
2023-07-18T19:30:52.015Z,95.60
2023-07-18T19:33:19.128Z,67.60
2023-07-18T19:35:46.673Z,53.20
2023-07-18T19:38:14.637Z,41.90
2023-07-18T19:40:41.901Z,28.00
2023-07-18T19:43:09.255Z,29.30
2023-07-18T19:45:36.575Z,19.10
2023-07-18T19:48:03.961Z,20.80
2023-07-18T19:50:31.118Z,20.30
2023-07-18T19:52:59.893Z,13.60
2023-07-18T19:55:26.740Z,11.80
2023-07-18T19:57:55.139Z,16.50
2023-07-18T20:00:24.340Z,15.30
2023-07-18T20:02:51.113Z,17.60
2023-07-18T20:05:22.501Z,13.40
2023-07-18T20:07:49.739Z,19.50
2023-07-18T20:10:16.454Z,19.20
2023-07-18T20:12:44.156Z,24.50
2023-07-18T20:15:10.981Z,19.90
2023-07-18T20:17:37.997Z,20.60
2023-07-18T20:20:05.692Z,22.70
2023-07-18T20:22:33.252Z,21.20
2023-07-18T20:24:59.979Z,23.30
2023-07-18T20:27:27.992Z,23.40
2023-07-18T20:29:55.592Z,25.70
2023-07-18T20:32:24.734Z,23.80
2023-07-18T20:34:52.347Z,25.80
2023-07-18T20:37:19.112Z,38.30
2023-07-18T20:39:46.513Z,44.70
2023-07-18T20:42:13.606Z,39.40
2023-07-18T20:44:45.195Z,45.30
2023-07-18T20:47:12.659Z,47.20
2023-07-18T20:49:39.592Z,40.80
2023-07-18T20:52:09.776Z,39.40
2023-07-18T20:54:37.420Z,42.50
2023-07-18T20:57:05.437Z,39.20
2023-07-18T20:59:32.429Z,38.70
2023-07-18T21:01:59.174Z,41.00
2023-07-18T21:04:27.424Z,35.50
2023-07-18T21:06:55.032Z,36.60
2023-07-18T21:09:22.273Z,35.10
2023-07-18T21:11:49.393Z,33.20
2023-07-18T21:14:18.516Z,29.20
2023-07-18T21:16:46.328Z,24.10
2023-07-18T21:19:14.670Z,25.50
2023-07-18T21:21:41.916Z,20.60
2023-07-18T21:24:09.230Z,21.40
2023-07-18T21:26:36.919Z,15.70
2023-07-18T21:29:05.814Z,12.30
2023-07-18T21:31:34.678Z,13.70
2023-07-18T21:34:02.120Z,14.80
2023-07-18T21:36:30.782Z,14.70
2023-07-18T21:38:58.209Z,13.40
2023-07-18T21:41:26.008Z,13.60
2023-07-18T21:43:53.079Z,14.40
2023-07-18T21:46:19.798Z,17.20
2023-07-18T21:48:48.302Z,16.10
2023-07-18T21:51:15.969Z,17.30
2023-07-18T21:53:43.196Z,16.70
2023-07-18T21:56:10.706Z,14.30
2023-07-18T21:58:38.422Z,12.30
2023-07-18T22:01:07.895Z,16.20
2023-07-18T22:03:38.232Z,14.70
2023-07-18T22:06:06.297Z,20.10
2023-07-18T22:08:33.242Z,39.90
2023-07-18T22:11:00.360Z,62.30
2023-07-18T22:13:29.321Z,59.60
2023-07-18T22:16:01.599Z,34.00
2023-07-18T22:18:29.143Z,31.30
2023-07-18T22:20:56.349Z,20.70
2023-07-18T22:23:24.972Z,18.90
2023-07-18T22:26:07.932Z,16.80
2023-07-18T22:28:42.331Z,20.10
2023-07-18T22:31:11.410Z,17.60
2023-07-18T22:33:39.993Z,14.20
2023-07-18T22:36:06.937Z,18.30
2023-07-18T22:38:33.813Z,14.20
2023-07-18T22:41:03.021Z,15.10
2023-07-18T22:43:31.081Z,12.80
2023-07-18T22:45:57.881Z,12.00
2023-07-18T22:48:27.298Z,14.90
2023-07-18T22:50:58.291Z,14.60
2023-07-18T22:53:29.792Z,21.90
2023-07-18T22:55:58.704Z,14.20
2023-07-18T22:58:27.063Z,13.80
2023-07-18T23:00:55.497Z,16.30
2023-07-18T23:03:22.645Z,14.40
2023-07-18T23:05:49.329Z,16.30
2023-07-18T23:08:16.350Z,13.10
2023-07-18T23:10:43.214Z,15.30
2023-07-18T23:13:16.464Z,15.30
2023-07-18T23:15:43.625Z,16.40
2023-07-18T23:18:10.464Z,13.50
2023-07-18T23:20:37.541Z,19.70
2023-07-18T23:23:05.850Z,14.10
2023-07-18T23:25:34.572Z,15.20
2023-07-18T23:28:01.294Z,9.70
2023-07-18T23:30:28.666Z,15.80
2023-07-18T23:32:55.598Z,13.90
2023-07-18T23:35:27.774Z,13.10
2023-07-18T23:37:57.522Z,15.00
2023-07-18T23:40:25.377Z,12.80
2023-07-18T23:42:52.667Z,13.90
2023-07-18T23:45:21.649Z,15.80
2023-07-18T23:47:48.989Z,15.50
2023-07-18T23:50:16.213Z,13.70
2023-07-18T23:52:44.295Z,12.10
2023-07-18T23:55:12.236Z,11.50
2023-07-18T23:57:42.484Z,15.10
